In Rescue
 
Open Full Screen Window  High Contrast Mode
Wind Gusting 00 knots
03
March 31, 2020 2:31 PM EDT
Weather Information
Wind Direction
  350 °
Wind Speed
  03 kt (3 mph)
Wind Gust
  00 kt (0 mph)
Altimeter
30.08 in
Visibility
10 SM
Temperature
05° C
41° F
Dewpoint
00° C
32° F
Humidity
70%
1hr Rain Fall
00.00 in.
24hr Rain Fall
00.00 in.
Sky Condition
Overcast @ 2,300 ft
MVFR

METAR KDRM 311831Z AUTO 35003KT 10SM OVC023 05/00 A3008 RMK AO2 T00461005

FAA Disclaimer: The data displayed is for advisory purposes only and is not to be used for flight planning or operations.